PWSweather.com
Personal Weather Stations
Station Observations
THEQULMNR
A Mountain, Tucson, AZ 85713

A MountainTucson, AZ 85713

Lat: 32.205986, Lon: -111.001395

Elevation: 2440

Station Type: Netatmo

Latest ConditionsUpdated 9:45:00 PM MST Monday, Mar 25, 2019
Currently Today's Max Today's Min Today's Average
Temperature 73.0°F22.8°C 85.5°F29.7°C 48.6°F9.2°C 69.8°F21.0°C
Dew Point 40.3°F4.6°C 48.2°F9.0°C 28.4°F-2.0°C 39.2°F4.0°C
Winds - N N - - - - -
Wind Gusts -- -- - -
Humidity 22% 48% 14% 27%
Pressure 30.08 in1018.6 mb 30.20 in1022.7 mb 30.03 in1016.9 mb -
Hour Temp Dew Point Humidity Winds Wind Gusts Pressure Precip Precip Rate Daily Precip Total
09:45 PM 73.0°F22.8°C 40.3°F4.6°C 22% - N N -- 30.08 in1018.6 mb 0.00 in0.0 mm 0.00 in0.0 mm 0.00 in0.0 mm
09:24 PM 73.4°F23.0°C 40.1°F4.5°C 21% - N N -- 30.09 in1019.0 mb 0.00 in0.0 mm 0.00 in0.0 mm 0.00 in0.0 mm
09:04 PM 73.8°F23.2°C 39.9°F4.4°C 20% - N N -- 30.08 in1018.6 mb 0.00 in0.0 mm 0.00 in0.0 mm 0.00 in0.0 mm
08:44 PM 74.3°F23.5°C 40.5°F4.7°C 20% - N N -- 30.08 in1018.6 mb 0.00 in0.0 mm 0.00 in0.0 mm 0.00 in0.0 mm
08:23 PM 74.7°F23.7°C 40.8°F4.9°C 20% - N N -- 30.07 in1018.3 mb 0.00 in0.0 mm 0.00 in0.0 mm 0.00 in0.0 mm
08:04 PM 75.4°F24.1°C 41.0°F5.0°C 19% - N N -- 30.06 in1017.9 mb 0.00 in0.0 mm 0.00 in0.0 mm 0.00 in0.0 mm
07:43 PM 76.1°F24.5°C 41.5°F5.3°C 19% - N N -- 30.06 in1017.9 mb 0.00 in0.0 mm 0.00 in0.0 mm 0.00 in0.0 mm
07:23 PM 76.8°F24.9°C 41.7°F5.4°C 18% - N N -- 30.05 in1017.6 mb 0.00 in0.0 mm 0.00 in0.0 mm 0.00 in0.0 mm
07:03 PM 78.1°F25.6°C 43.0°F6.1°C 18% - N N -- 30.05 in1017.6 mb 0.00 in0.0 mm 0.00 in0.0 mm 0.00 in0.0 mm
06:43 PM 79.3°F26.3°C 43.2°F6.2°C 16% - N N -- 30.04 in1017.3 mb 0.00 in0.0 mm 0.00 in0.0 mm 0.00 in0.0 mm
06:23 PM 80.2°F26.8°C 43.9°F6.6°C 16% - N N -- 30.03 in1016.9 mb 0.00 in0.0 mm 0.00 in0.0 mm 0.00 in0.0 mm
06:02 PM 81.1°F27.3°C 44.6°F7.0°C 16% - N N -- 30.04 in1017.3 mb 0.00 in0.0 mm 0.00 in0.0 mm 0.00 in0.0 mm
05:42 PM 82.0°F27.8°C 45.5°F7.5°C 16% - N N -- 30.03 in1016.9 mb 0.00 in0.0 mm 0.00 in0.0 mm 0.00 in0.0 mm
05:22 PM 82.8°F28.2°C 46.0°F7.8°C 16% - N N -- 30.03 in1016.9 mb 0.00 in0.0 mm 0.00 in0.0 mm 0.00 in0.0 mm
05:02 PM 82.9°F28.3°C 45.9°F7.7°C 15% - N N -- 30.03 in1016.9 mb 0.00 in0.0 mm 0.00 in0.0 mm 0.00 in0.0 mm
04:42 PM 83.3°F28.5°C 46.0°F7.8°C 15% - N N -- 30.03 in1016.9 mb 0.00 in0.0 mm 0.00 in0.0 mm 0.00 in0.0 mm
04:22 PM 83.5°F28.6°C 46.2°F7.9°C 15% - N N -- 30.04 in1017.3 mb 0.00 in0.0 mm 0.00 in0.0 mm 0.00 in0.0 mm
04:01 PM 83.7°F28.7°C 46.4°F8.0°C 15% - N N -- 30.05 in1017.6 mb 0.00 in0.0 mm 0.00 in0.0 mm 0.00 in0.0 mm
03:41 PM 83.8°F28.8°C 46.0°F7.8°C 14% - N N -- 30.05 in1017.6 mb 0.00 in0.0 mm 0.00 in0.0 mm 0.00 in0.0 mm
03:21 PM 84.0°F28.9°C 46.2°F7.9°C 14% - N N -- 30.06 in1017.9 mb 0.00 in0.0 mm 0.00 in0.0 mm 0.00 in0.0 mm
03:01 PM 84.2°F29.0°C 46.4°F8.0°C 14% - N N -- 30.06 in1017.9 mb 0.00 in0.0 mm 0.00 in0.0 mm 0.00 in0.0 mm
02:41 PM 84.7°F29.3°C 46.9°F8.3°C 14% - N N -- 30.07 in1018.3 mb 0.00 in0.0 mm 0.00 in0.0 mm 0.00 in0.0 mm
02:20 PM 84.7°F29.3°C 47.3°F8.5°C 15% - N N -- 30.08 in1018.6 mb 0.00 in0.0 mm 0.00 in0.0 mm 0.00 in0.0 mm
02:01 PM 84.7°F29.3°C 47.8°F8.8°C 16% - N N -- 30.08 in1018.6 mb 0.00 in0.0 mm 0.00 in0.0 mm 0.00 in0.0 mm
01:40 PM 85.5°F29.7°C 48.0°F8.9°C 15% - N N -- 30.09 in1019.0 mb 0.00 in0.0 mm 0.00 in0.0 mm 0.00 in0.0 mm
01:20 PM 85.3°F29.6°C 48.2°F9.0°C 16% - N N -- 30.10 in1019.3 mb 0.00 in0.0 mm 0.00 in0.0 mm 0.00 in0.0 mm
01:00 PM 84.0°F28.9°C 47.1°F8.4°C 16% - N N -- 30.12 in1020.0 mb 0.00 in0.0 mm 0.00 in0.0 mm 0.00 in0.0 mm
12:39 PM 84.0°F28.9°C 47.1°F8.4°C 16% - N N -- 30.13 in1020.3 mb 0.00 in0.0 mm 0.00 in0.0 mm 0.00 in0.0 mm
12:20 PM 83.8°F28.8°C 47.5°F8.6°C 17% - N N -- 30.14 in1020.7 mb 0.00 in0.0 mm 0.00 in0.0 mm 0.00 in0.0 mm
11:59 AM 83.7°F28.7°C 47.8°F8.8°C 18% - N N -- 30.15 in1021.0 mb 0.00 in0.0 mm 0.00 in0.0 mm 0.00 in0.0 mm
11:40 AM 82.9°F28.3°C 47.5°F8.6°C 19% - N N -- 30.16 in1021.3 mb 0.00 in0.0 mm 0.00 in0.0 mm 0.00 in0.0 mm
11:19 AM 82.9°F28.3°C 47.5°F8.6°C 19% - N N -- 30.16 in1021.3 mb 0.00 in0.0 mm 0.00 in0.0 mm 0.00 in0.0 mm
10:59 AM 81.7°F27.6°C 46.9°F8.3°C 20% - N N -- 30.17 in1021.7 mb 0.00 in0.0 mm 0.00 in0.0 mm 0.00 in0.0 mm
10:39 AM 80.6°F27.0°C 46.4°F8.0°C 21% - N N -- 30.18 in1022.0 mb 0.00 in0.0 mm 0.00 in0.0 mm 0.00 in0.0 mm
10:18 AM 79.0°F26.1°C 45.5°F7.5°C 22% - N N -- 30.19 in1022.4 mb 0.00 in0.0 mm 0.00 in0.0 mm 0.00 in0.0 mm
09:58 AM 76.6°F24.8°C 44.6°F7.0°C 25% - N N -- 30.19 in1022.4 mb 0.00 in0.0 mm 0.00 in0.0 mm 0.00 in0.0 mm
09:38 AM 74.7°F23.7°C 43.3°F6.3°C 26% - N N -- 30.20 in1022.7 mb 0.00 in0.0 mm 0.00 in0.0 mm 0.00 in0.0 mm
09:18 AM 71.8°F22.1°C 42.1°F5.6°C 29% - N N -- 30.20 in1022.7 mb 0.00 in0.0 mm 0.00 in0.0 mm 0.00 in0.0 mm
08:58 AM 68.0°F20.0°C 39.9°F4.4°C 32% - N N -- 30.20 in1022.7 mb 0.00 in0.0 mm 0.00 in0.0 mm 0.00 in0.0 mm
08:48 AM 66.0°F18.9°C 39.0°F3.9°C 34% - N N -- 30.20 in1022.7 mb 0.00 in0.0 mm 0.00 in0.0 mm 0.00 in0.0 mm
08:27 AM 61.9°F16.6°C 36.9°F2.7°C 38% - N N -- 30.20 in1022.7 mb 0.00 in0.0 mm 0.00 in0.0 mm 0.00 in0.0 mm
08:08 AM 58.5°F14.7°C 34.7°F1.5°C 40% - N N -- 30.20 in1022.7 mb 0.00 in0.0 mm 0.00 in0.0 mm 0.00 in0.0 mm
07:47 AM 55.8°F13.2°C 33.4°F0.8°C 43% - N N -- 30.19 in1022.4 mb 0.00 in0.0 mm 0.00 in0.0 mm 0.00 in0.0 mm
07:27 AM 52.9°F11.6°C 32.0°F0.0°C 46% - N N -- 30.19 in1022.4 mb 0.00 in0.0 mm 0.00 in0.0 mm 0.00 in0.0 mm
07:07 AM 50.4°F10.2°C 30.4°F-0.9°C 48% - N N -- 30.19 in1022.4 mb 0.00 in0.0 mm 0.00 in0.0 mm 0.00 in0.0 mm
06:47 AM 48.7°F9.3°C 28.9°F-1.7°C 48% - N N -- 30.19 in1022.4 mb 0.00 in0.0 mm 0.00 in0.0 mm 0.00 in0.0 mm
06:27 AM 48.6°F9.2°C 28.4°F-2.0°C 47% - N N -- 30.19 in1022.4 mb 0.00 in0.0 mm 0.00 in0.0 mm 0.00 in0.0 mm
06:06 AM 48.9°F9.4°C 28.8°F-1.8°C 47% - N N -- 30.19 in1022.4 mb 0.00 in0.0 mm 0.00 in0.0 mm 0.00 in0.0 mm
05:46 AM 49.3°F9.6°C 28.6°F-1.9°C 46% - N N -- 30.18 in1022.0 mb 0.00 in0.0 mm 0.00 in0.0 mm 0.00 in0.0 mm
05:26 AM 49.8°F9.9°C 28.8°F-1.8°C 45% - N N -- 30.18 in1022.0 mb 0.00 in0.0 mm 0.00 in0.0 mm 0.00 in0.0 mm
05:06 AM 50.4°F10.2°C 28.8°F-1.8°C 44% - N N -- 30.18 in1022.0 mb 0.00 in0.0 mm 0.00 in0.0 mm 0.00 in0.0 mm
04:46 AM 50.7°F10.4°C 28.8°F-1.8°C 43% - N N -- 30.17 in1021.7 mb 0.00 in0.0 mm 0.00 in0.0 mm 0.00 in0.0 mm
04:26 AM 51.1°F10.6°C 29.1°F-1.6°C 43% - N N -- 30.18 in1022.0 mb 0.00 in0.0 mm 0.00 in0.0 mm 0.00 in0.0 mm
04:05 AM 51.8°F11.0°C 29.3°F-1.5°C 42% - N N -- 30.18 in1022.0 mb 0.00 in0.0 mm 0.00 in0.0 mm 0.00 in0.0 mm
03:45 AM 52.7°F11.5°C 29.8°F-1.2°C 41% - N N -- 30.18 in1022.0 mb 0.00 in0.0 mm 0.00 in0.0 mm 0.00 in0.0 mm
03:25 AM 53.4°F11.9°C 30.0°F-1.1°C 40% - N N -- 30.18 in1022.0 mb 0.00 in0.0 mm 0.00 in0.0 mm 0.00 in0.0 mm
03:05 AM 54.0°F12.2°C 30.2°F-1.0°C 39% - N N -- 30.18 in1022.0 mb 0.00 in0.0 mm 0.00 in0.0 mm 0.00 in0.0 mm
02:45 AM 54.5°F12.5°C 30.2°F-1.0°C 38% - N N -- 30.19 in1022.4 mb 0.00 in0.0 mm 0.00 in0.0 mm 0.00 in0.0 mm
02:24 AM 55.2°F12.9°C 30.6°F-0.8°C 37% - N N -- 30.19 in1022.4 mb 0.00 in0.0 mm 0.00 in0.0 mm 0.00 in0.0 mm
02:05 AM 56.1°F13.4°C 30.9°F-0.6°C 36% - N N -- 30.19 in1022.4 mb 0.00 in0.0 mm 0.00 in0.0 mm 0.00 in0.0 mm
01:44 AM 57.2°F14.0°C 31.1°F-0.5°C 34% - N N -- 30.19 in1022.4 mb 0.00 in0.0 mm 0.00 in0.0 mm 0.00 in0.0 mm
01:24 AM 58.3°F14.6°C 31.6°F-0.2°C 33% - N N -- 30.20 in1022.7 mb 0.00 in0.0 mm 0.00 in0.0 mm 0.00 in0.0 mm
01:04 AM 59.2°F15.1°C 32.0°F0.0°C 32% - N N -- 30.20 in1022.7 mb 0.00 in0.0 mm 0.00 in0.0 mm 0.00 in0.0 mm
12:43 AM 60.4°F15.8°C 32.4°F0.2°C 30% - N N -- 30.20 in1022.7 mb 0.00 in0.0 mm 0.00 in0.0 mm 0.00 in0.0 mm
12:24 AM 61.3°F16.3°C 32.7°F0.4°C 29% - N N -- 30.19 in1022.4 mb 0.00 in0.0 mm 0.00 in0.0 mm 0.00 in0.0 mm
12:03 AM 61.9°F16.6°C 32.9°F0.5°C 28% - N N -- 30.19 in1022.4 mb 0.00 in0.0 mm 0.00 in0.0 mm 0.00 in0.0 mm